createdAt,value
2018-01-26T00:00:21.503Z,10.17
2018-01-26T00:02:48.980Z,12.57
2018-01-26T00:05:16.483Z,11.60
2018-01-26T00:07:44.050Z,13.37
2018-01-26T00:10:12.180Z,9.50
2018-01-26T00:12:39.679Z,10.30
2018-01-26T00:15:07.212Z,10.07
2018-01-26T00:17:34.717Z,10.40
2018-01-26T00:20:03.876Z,13.87
2018-01-26T00:22:31.366Z,13.03
2018-01-26T00:24:59.616Z,12.73
2018-01-26T00:27:27.125Z,14.47
2018-01-26T00:29:55.251Z,12.80
2018-01-26T00:32:22.771Z,12.50
2018-01-26T00:34:50.305Z,10.93
2018-01-26T00:37:17.831Z,12.07
2018-01-26T00:39:45.350Z,13.00
2018-01-26T00:42:12.871Z,12.10
2018-01-26T00:44:41.144Z,12.63
2018-01-26T00:47:09.416Z,9.70
2018-01-26T00:49:37.661Z,8.67
2018-01-26T00:52:05.179Z,11.30
2018-01-26T00:54:32.663Z,12.17
2018-01-26T00:57:00.190Z,11.20
2018-01-26T00:59:27.681Z,9.67
2018-01-26T01:01:55.349Z,10.00
2018-01-26T01:04:22.834Z,8.40
2018-01-26T01:06:50.350Z,9.70
2018-01-26T01:09:17.859Z,9.37
2018-01-26T01:11:46.096Z,10.47
2018-01-26T01:14:13.605Z,9.67
2018-01-26T01:16:41.849Z,6.73
2018-01-26T01:19:09.338Z,8.10
2018-01-26T01:21:36.837Z,9.50
2018-01-26T01:24:04.339Z,11.30
2018-01-26T01:26:31.807Z,11.53
2018-01-26T01:29:00.113Z,8.40
2018-01-26T01:31:27.604Z,13.27
2018-01-26T01:33:55.107Z,8.00
2018-01-26T01:36:23.354Z,9.80
2018-01-26T01:38:50.866Z,14.60
2018-01-26T01:41:18.374Z,8.30
2018-01-26T01:43:46.680Z,9.10
2018-01-26T01:46:14.255Z,12.37
2018-01-26T01:48:41.789Z,12.67
2018-01-26T01:51:10.041Z,13.30
2018-01-26T01:53:37.658Z,7.17
2018-01-26T01:56:05.166Z,8.23
2018-01-26T01:58:32.634Z,7.30
2018-01-26T02:01:00.916Z,8.70
2018-01-26T02:03:29.182Z,8.57
2018-01-26T02:05:57.444Z,7.67
2018-01-26T02:08:24.976Z,9.77
2018-01-26T02:10:52.458Z,11.67
2018-01-26T02:13:19.981Z,10.07
2018-01-26T02:15:47.467Z,8.00
2018-01-26T02:18:14.999Z,12.90
2018-01-26T02:20:42.516Z,9.13
2018-01-26T02:23:10.011Z,9.17
2018-01-26T02:25:37.477Z,13.03
2018-01-26T02:28:05.041Z,10.50
2018-01-26T02:30:32.548Z,12.97
2018-01-26T02:33:00.797Z,13.80
2018-01-26T02:35:28.299Z,15.23
2018-01-26T02:37:55.990Z,17.33
2018-01-26T02:40:23.473Z,16.17
2018-01-26T02:42:50.943Z,11.63
2018-01-26T02:45:18.457Z,13.67
2018-01-26T02:47:45.944Z,13.37
2018-01-26T02:50:13.496Z,16.97
2018-01-26T02:52:40.973Z,16.30
2018-01-26T02:55:08.550Z,15.10
2018-01-26T02:57:36.039Z,22.07
2018-01-26T03:00:03.612Z,13.23
2018-01-26T03:02:31.104Z,16.50
2018-01-26T03:04:58.584Z,12.23
2018-01-26T03:07:26.855Z,11.27
2018-01-26T03:09:55.086Z,12.17
2018-01-26T03:12:22.597Z,12.70
2018-01-26T03:14:50.844Z,12.20
2018-01-26T03:17:18.354Z,14.73
2018-01-26T03:19:45.845Z,13.50
2018-01-26T03:22:13.370Z,12.20
2018-01-26T03:24:40.835Z,19.27
2018-01-26T03:27:08.301Z,15.30
2018-01-26T03:29:35.817Z,15.03
2018-01-26T03:32:04.080Z,19.03
2018-01-26T03:34:31.591Z,15.97
2018-01-26T03:36:59.069Z,14.10
2018-01-26T03:39:26.578Z,18.80
2018-01-26T03:41:54.877Z,17.27
2018-01-26T03:44:22.436Z,15.90
2018-01-26T03:46:49.898Z,16.90
2018-01-26T03:49:17.556Z,31.47
2018-01-26T03:51:45.058Z,19.13
2018-01-26T03:54:12.537Z,18.73
2018-01-26T03:56:40.798Z,20.07
2018-01-26T03:59:08.270Z,22.97
2018-01-26T04:01:36.641Z,25.37
2018-01-26T04:04:04.893Z,20.00
2018-01-26T04:06:32.377Z,19.93
2018-01-26T04:09:00.612Z,16.87
2018-01-26T04:11:28.143Z,18.17
2018-01-26T04:13:55.651Z,14.77
2018-01-26T04:16:23.246Z,16.17
2018-01-26T04:18:50.711Z,21.53
2018-01-26T04:21:18.215Z,17.47
2018-01-26T04:23:45.724Z,15.07
2018-01-26T04:26:13.199Z,19.17
2018-01-26T04:28:40.695Z,14.93
2018-01-26T04:31:08.201Z,17.10
2018-01-26T04:33:35.726Z,15.73
2018-01-26T04:36:03.200Z,16.70
2018-01-26T04:38:31.477Z,27.23
2018-01-26T04:40:58.979Z,18.53
2018-01-26T04:43:26.481Z,24.90
2018-01-26T04:45:54.736Z,23.23
2018-01-26T04:48:22.337Z,19.60
2018-01-26T04:50:49.827Z,17.33
2018-01-26T04:53:18.105Z,16.53
2018-01-26T04:55:45.612Z,16.60
2018-01-26T04:58:13.927Z,20.30
2018-01-26T05:00:41.434Z,21.50
2018-01-26T05:03:08.913Z,22.33
2018-01-26T05:05:37.162Z,16.27
2018-01-26T05:08:04.648Z,25.20
2018-01-26T05:10:32.920Z,22.43
2018-01-26T05:13:01.177Z,20.03
2018-01-26T05:15:28.686Z,21.17
2018-01-26T05:17:56.166Z,18.77
2018-01-26T05:20:23.698Z,18.73
2018-01-26T05:22:51.229Z,22.53
2018-01-26T05:25:19.507Z,22.40
2018-01-26T05:27:46.979Z,24.50
2018-01-26T05:30:14.480Z,31.77
2018-01-26T05:32:41.993Z,21.30
2018-01-26T05:35:09.500Z,20.33
2018-01-26T05:37:37.001Z,21.60
2018-01-26T05:40:05.277Z,21.70
2018-01-26T05:42:33.528Z,24.70
2018-01-26T05:45:01.061Z,31.20
2018-01-26T05:47:28.526Z,21.37
2018-01-26T05:49:56.044Z,21.10
2018-01-26T05:52:23.510Z,29.23
2018-01-26T05:54:50.997Z,22.50
2018-01-26T05:57:18.500Z,22.87
2018-01-26T05:59:46.748Z,30.07
2018-01-26T06:02:14.257Z,21.60
2018-01-26T06:04:41.733Z,22.47
2018-01-26T06:07:09.232Z,20.90
2018-01-26T06:09:37.480Z,21.43
2018-01-26T06:12:05.004Z,25.73
2018-01-26T06:14:32.566Z,28.20
2018-01-26T06:17:00.210Z,29.03
2018-01-26T06:19:28.455Z,28.10
2018-01-26T06:21:56.222Z,24.17
2018-01-26T06:24:24.477Z,24.90
2018-01-26T06:26:51.992Z,23.27
2018-01-26T06:29:19.484Z,27.13
2018-01-26T06:31:46.955Z,31.57
2018-01-26T06:34:14.485Z,24.93
2018-01-26T06:36:41.963Z,22.57
2018-01-26T06:39:09.471Z,23.13
2018-01-26T06:41:36.944Z,27.97
2018-01-26T06:44:04.450Z,28.70
2018-01-26T06:46:31.924Z,28.17
2018-01-26T06:49:00.207Z,22.53
2018-01-26T06:51:28.464Z,29.80
2018-01-26T06:53:56.018Z,21.60
2018-01-26T06:56:23.486Z,19.53
2018-01-26T06:58:50.999Z,19.40
2018-01-26T07:01:18.492Z,17.37
2018-01-26T07:03:45.994Z,22.87
2018-01-26T07:06:13.480Z,21.33
2018-01-26T07:08:40.986Z,17.13
2018-01-26T07:11:09.239Z,19.57
2018-01-26T07:13:36.763Z,26.70
2018-01-26T07:16:05.005Z,21.80
2018-01-26T07:18:33.385Z,20.57
2018-01-26T07:21:01.631Z,19.00
2018-01-26T07:23:29.103Z,19.13
2018-01-26T07:25:56.698Z,17.97
2018-01-26T07:28:24.323Z,16.13
2018-01-26T07:30:51.846Z,19.50
2018-01-26T07:33:19.306Z,19.20
2018-01-26T07:35:46.812Z,21.37
2018-01-26T07:38:15.061Z,21.63
2018-01-26T07:40:42.573Z,21.33
2018-01-26T07:43:10.061Z,16.73
2018-01-26T07:45:37.583Z,21.47
2018-01-26T07:48:05.051Z,15.83
2018-01-26T07:50:32.568Z,15.87
2018-01-26T07:53:00.813Z,17.87
2018-01-26T07:55:28.358Z,13.87
2018-01-26T07:57:55.851Z,16.10
2018-01-26T08:00:23.481Z,24.70
2018-01-26T08:02:50.964Z,20.23
2018-01-26T08:05:18.437Z,24.97
2018-01-26T08:07:46.700Z,23.50
2018-01-26T08:10:14.166Z,24.33
2018-01-26T08:12:42.439Z,23.40
2018-01-26T08:15:09.914Z,19.13
2018-01-26T08:17:38.188Z,23.10
2018-01-26T08:20:06.409Z,30.50
2018-01-26T08:22:34.538Z,26.57
2018-01-26T08:25:02.770Z,19.27
2018-01-26T08:27:30.283Z,22.40
2018-01-26T08:29:57.756Z,21.03
2018-01-26T08:32:25.258Z,24.00
2018-01-26T08:34:52.733Z,25.53
2018-01-26T08:37:21.005Z,24.87
2018-01-26T08:39:48.488Z,26.97
2018-01-26T08:42:16.010Z,29.00
2018-01-26T08:44:43.507Z,24.37
2018-01-26T08:47:11.547Z,30.07
2018-01-26T08:49:39.051Z,43.38
2018-01-26T08:52:06.562Z,29.73
2018-01-26T08:54:34.045Z,28.97
2018-01-26T08:57:06.623Z,32.37
2018-01-26T08:59:35.026Z,28.80
2018-01-26T09:02:02.542Z,20.80
2018-01-26T09:04:30.795Z,25.67
2018-01-26T09:06:58.451Z,30.07
2018-01-26T09:09:25.963Z,39.23
2018-01-26T09:11:53.445Z,61.17
2018-01-26T09:14:21.815Z,54.87
2018-01-26T09:16:49.339Z,41.40
2018-01-26T09:19:17.631Z,38.00
2018-01-26T09:21:45.116Z,42.27
2018-01-26T09:24:12.639Z,41.27
2018-01-26T09:26:40.894Z,40.10
2018-01-26T09:29:08.399Z,32.87
2018-01-26T09:31:35.943Z,39.77
2018-01-26T09:34:03.476Z,34.87
2018-01-26T09:36:31.808Z,28.83
2018-01-26T09:38:59.303Z,29.77
2018-01-26T09:41:26.792Z,25.43
2018-01-26T09:43:54.299Z,26.67
2018-01-26T09:46:21.767Z,30.50
2018-01-26T09:48:49.261Z,23.87
2018-01-26T09:51:16.783Z,23.93
2018-01-26T09:53:44.262Z,26.07
2018-01-26T09:56:12.553Z,30.27
2018-01-26T09:58:40.036Z,19.37
2018-01-26T10:01:07.557Z,23.33
2018-01-26T10:03:35.081Z,22.10
2018-01-26T10:06:03.366Z,18.20
2018-01-26T10:08:30.870Z,19.57
2018-01-26T10:10:58.381Z,19.10
2018-01-26T10:13:25.860Z,16.10
2018-01-26T10:15:53.365Z,17.70
2018-01-26T10:18:20.924Z,17.67
2018-01-26T10:20:48.451Z,17.00
2018-01-26T10:23:16.686Z,23.97
2018-01-26T10:25:44.598Z,19.60
2018-01-26T10:28:12.099Z,16.03
2018-01-26T10:30:39.714Z,17.57
2018-01-26T10:33:07.245Z,20.00
2018-01-26T10:35:34.794Z,16.33
2018-01-26T10:38:02.339Z,17.80
2018-01-26T10:40:29.827Z,20.90
2018-01-26T10:42:57.345Z,21.67
2018-01-26T10:45:24.864Z,21.07
2018-01-26T10:47:53.180Z,21.30
2018-01-26T10:50:20.744Z,16.83
2018-01-26T10:52:48.375Z,14.97
2018-01-26T10:55:15.863Z,16.37
2018-01-26T10:57:43.360Z,19.27
2018-01-26T11:00:10.875Z,17.27
2018-01-26T11:02:38.380Z,16.03
2018-01-26T11:05:05.866Z,17.60
2018-01-26T11:07:34.231Z,18.47
2018-01-26T11:10:02.524Z,16.23
2018-01-26T11:12:30.020Z,14.60
2018-01-26T11:14:57.742Z,11.63
2018-01-26T11:17:25.249Z,13.67
2018-01-26T11:19:53.736Z,14.63
2018-01-26T11:22:21.211Z,11.60
2018-01-26T11:24:49.478Z,13.20
2018-01-26T11:27:16.950Z,14.03
2018-01-26T11:29:44.478Z,13.37
2018-01-26T11:32:11.957Z,10.40
2018-01-26T11:34:39.457Z,6.77
2018-01-26T11:37:06.970Z,7.03
2018-01-26T11:39:34.526Z,11.00
2018-01-26T11:42:02.025Z,7.20
2018-01-26T11:44:29.514Z,7.93
2018-01-26T11:46:57.045Z,7.03
2018-01-26T11:49:24.547Z,9.00
2018-01-26T11:51:52.018Z,8.63
2018-01-26T11:54:19.833Z,8.27
2018-01-26T11:56:47.314Z,7.77
2018-01-26T11:59:14.844Z,9.83
2018-01-26T12:01:42.333Z,8.17
2018-01-26T12:04:09.846Z,8.67
2018-01-26T12:06:37.347Z,10.57
2018-01-26T12:09:04.841Z,8.63
2018-01-26T12:11:32.299Z,8.67
2018-01-26T12:14:00.568Z,11.13
2018-01-26T12:16:28.029Z,8.83
2018-01-26T12:18:56.561Z,9.77
2018-01-26T12:21:24.064Z,9.07
2018-01-26T12:23:52.322Z,11.17
2018-01-26T12:26:19.900Z,7.73
2018-01-26T12:28:47.399Z,9.90
2018-01-26T12:31:14.887Z,10.87
2018-01-26T12:33:42.424Z,15.67
2018-01-26T12:36:09.939Z,12.23
2018-01-26T12:38:37.417Z,14.17
2018-01-26T12:41:04.930Z,10.97
2018-01-26T12:43:32.462Z,9.20
2018-01-26T12:45:59.997Z,10.00
2018-01-26T12:48:27.467Z,9.43
2018-01-26T12:50:54.999Z,9.67
2018-01-26T12:53:22.453Z,7.37
2018-01-26T12:55:49.972Z,7.20
2018-01-26T12:58:17.444Z,8.70
2018-01-26T13:00:44.965Z,8.83
2018-01-26T13:03:12.470Z,14.10
2018-01-26T13:05:40.011Z,15.17
2018-01-26T13:08:08.176Z,11.43
2018-01-26T13:10:35.693Z,12.73
2018-01-26T13:13:03.168Z,12.83
2018-01-26T13:15:30.716Z,11.43
2018-01-26T13:17:58.209Z,10.47
2018-01-26T13:20:25.733Z,10.03
2018-01-26T13:22:53.246Z,11.60
2018-01-26T13:25:20.814Z,11.53
2018-01-26T13:27:49.054Z,8.87
2018-01-26T13:30:16.524Z,7.80
2018-01-26T13:32:44.079Z,8.37
2018-01-26T13:35:11.539Z,10.23
2018-01-26T13:37:39.101Z,10.93
2018-01-26T13:40:06.593Z,11.53
2018-01-26T13:42:34.861Z,13.03
2018-01-26T13:45:02.335Z,10.50
2018-01-26T13:47:29.903Z,10.13
2018-01-26T13:49:57.417Z,12.20
2018-01-26T13:52:24.928Z,12.20
2018-01-26T13:54:52.422Z,13.93
2018-01-26T13:57:19.968Z,8.80
2018-01-26T13:59:47.482Z,9.97
2018-01-26T14:02:15.783Z,10.00
2018-01-26T14:04:43.268Z,10.27
2018-01-26T14:07:10.764Z,16.50
2018-01-26T14:09:39.455Z,20.10
2018-01-26T14:12:08.199Z,17.80
2018-01-26T14:14:36.533Z,15.23
2018-01-26T14:17:04.639Z,12.17
2018-01-26T14:19:32.123Z,9.97
2018-01-26T14:21:59.643Z,10.73
2018-01-26T14:24:27.134Z,7.93
2018-01-26T14:26:54.665Z,8.70
2018-01-26T14:29:22.158Z,8.93
2018-01-26T14:31:49.672Z,5.60
2018-01-26T14:34:17.200Z,6.50
2018-01-26T14:36:45.447Z,8.70
2018-01-26T14:39:12.952Z,13.60
2018-01-26T14:41:40.631Z,8.20
2018-01-26T14:44:08.090Z,7.23
2018-01-26T14:46:35.584Z,8.30
2018-01-26T14:49:03.104Z,9.27
2018-01-26T14:51:30.645Z,13.53
2018-01-26T14:53:58.173Z,9.80
2018-01-26T14:56:25.658Z,10.13
2018-01-26T14:58:53.197Z,10.20
2018-01-26T15:01:21.460Z,10.53
2018-01-26T15:03:48.972Z,7.87
2018-01-26T15:06:16.460Z,16.20
2018-01-26T15:08:44.036Z,18.47
2018-01-26T15:11:11.519Z,18.30
2018-01-26T15:13:39.801Z,6.83
2018-01-26T15:16:07.281Z,8.83
2018-01-26T15:18:34.818Z,10.13
2018-01-26T15:21:02.318Z,6.27
2018-01-26T15:23:29.851Z,6.93
2018-01-26T15:25:57.351Z,8.77
2018-01-26T15:28:24.900Z,9.10
2018-01-26T15:30:52.437Z,8.97
2018-01-26T15:33:19.907Z,9.93
2018-01-26T15:35:47.421Z,14.50
2018-01-26T15:38:15.685Z,21.63
2018-01-26T15:40:43.957Z,19.37
2018-01-26T15:43:11.469Z,10.70
2018-01-26T15:45:38.967Z,14.40
2018-01-26T15:48:07.255Z,12.20
2018-01-26T15:50:35.533Z,9.93
2018-01-26T15:53:03.798Z,14.73
2018-01-26T15:55:31.332Z,21.53
2018-01-26T15:57:58.849Z,12.60
2018-01-26T16:00:26.382Z,13.33
2018-01-26T16:02:54.700Z,12.60
2018-01-26T16:05:22.215Z,13.40
2018-01-26T16:07:49.708Z,14.40
2018-01-26T16:10:17.225Z,18.93
2018-01-26T16:12:45.501Z,27.80
2018-01-26T16:15:13.004Z,28.30
2018-01-26T16:17:40.502Z,34.70
2018-01-26T16:20:07.980Z,30.33
2018-01-26T16:22:36.285Z,40.10
2018-01-26T16:25:03.773Z,27.63
2018-01-26T16:27:31.367Z,50.23
2018-01-26T16:29:59.094Z,32.97
2018-01-26T16:32:26.657Z,32.30
2018-01-26T16:34:54.159Z,26.77
2018-01-26T16:37:22.411Z,20.90
2018-01-26T16:39:49.943Z,17.33
2018-01-26T16:42:17.464Z,21.27
2018-01-26T16:44:44.992Z,17.83
2018-01-26T16:47:13.118Z,29.23
2018-01-26T16:49:40.657Z,20.47
2018-01-26T16:52:08.146Z,21.23
2018-01-26T16:54:35.665Z,30.37
2018-01-26T16:57:03.903Z,21.23
2018-01-26T16:59:31.437Z,22.23
2018-01-26T17:01:58.914Z,17.77
2018-01-26T17:04:26.448Z,18.93
2018-01-26T17:06:53.933Z,27.70
2018-01-26T17:09:21.411Z,23.30
2018-01-26T17:11:48.954Z,33.57
2018-01-26T17:14:16.437Z,22.80
2018-01-26T17:16:44.718Z,24.67
2018-01-26T17:19:12.274Z,19.03
2018-01-26T17:21:40.605Z,32.00
2018-01-26T17:24:08.097Z,19.77
2018-01-26T17:26:35.637Z,27.70
2018-01-26T17:29:03.150Z,27.27
2018-01-26T17:31:30.657Z,29.20
2018-01-26T17:33:58.191Z,24.27
2018-01-26T17:36:25.668Z,27.60
2018-01-26T17:38:53.177Z,26.07
2018-01-26T17:41:21.411Z,23.87
2018-01-26T17:43:48.935Z,24.03
2018-01-26T17:46:16.428Z,22.27
2018-01-26T17:48:43.922Z,33.07
2018-01-26T17:51:11.415Z,33.80
2018-01-26T17:53:38.911Z,32.00
2018-01-26T17:56:06.415Z,23.23
2018-01-26T17:58:33.913Z,27.37
2018-01-26T18:01:01.417Z,29.77
2018-01-26T18:03:29.726Z,37.30
2018-01-26T18:05:57.214Z,41.57
2018-01-26T18:08:25.263Z,37.77
2018-01-26T18:10:52.793Z,33.30
2018-01-26T18:13:21.019Z,27.83
2018-01-26T18:15:48.517Z,32.97
2018-01-26T18:18:16.015Z,24.20
2018-01-26T18:20:43.552Z,31.87
2018-01-26T18:23:11.042Z,34.47
2018-01-26T18:25:38.560Z,37.43
2018-01-26T18:28:06.275Z,38.50
2018-01-26T18:30:33.785Z,37.17
2018-01-26T18:33:02.115Z,34.03
2018-01-26T18:35:29.587Z,29.93
2018-01-26T18:37:57.880Z,49.87
2018-01-26T18:40:25.399Z,45.10
2018-01-26T18:42:52.890Z,34.83
2018-01-26T18:45:20.468Z,35.03
2018-01-26T18:47:48.007Z,45.47
2018-01-26T18:50:15.498Z,55.47
2018-01-26T18:52:42.982Z,37.83
2018-01-26T18:55:10.483Z,42.53
2018-01-26T18:57:38.024Z,37.83
2018-01-26T19:00:05.581Z,49.13
2018-01-26T19:02:33.094Z,45.33
2018-01-26T19:05:00.598Z,53.60
2018-01-26T19:07:28.169Z,46.30
2018-01-26T19:09:56.441Z,60.63
2018-01-26T19:12:23.920Z,57.60
2018-01-26T19:14:51.453Z,56.67
2018-01-26T19:17:19.711Z,53.60
2018-01-26T19:19:47.218Z,67.03
2018-01-26T19:22:14.787Z,96.27
2018-01-26T19:24:42.304Z,66.80
2018-01-26T19:27:10.538Z,38.70
2018-01-26T19:29:38.039Z,45.60
2018-01-26T19:32:05.529Z,53.67
2018-01-26T19:34:33.198Z,60.73
2018-01-26T19:37:00.927Z,91.67
2018-01-26T19:39:28.444Z,63.10
2018-01-26T19:41:55.997Z,61.50
2018-01-26T19:44:24.201Z,104.87
2018-01-26T19:46:51.809Z,59.57
2018-01-26T19:49:19.287Z,87.27
2018-01-26T19:51:46.839Z,80.83
2018-01-26T19:54:14.358Z,115.63
2018-01-26T19:56:41.855Z,73.57
2018-01-26T19:59:09.419Z,88.17
2018-01-26T20:01:36.963Z,60.53
2018-01-26T20:04:05.370Z,85.90
2018-01-26T20:10:04.785Z,68.50
2018-01-26T20:12:38.065Z,77.47
2018-01-26T20:15:05.611Z,37.70
2018-01-26T20:17:33.081Z,34.30
2018-01-26T20:20:00.612Z,62.87
2018-01-26T20:22:28.902Z,147.37
2018-01-26T20:24:56.431Z,79.67
2018-01-26T20:27:23.912Z,99.23
2018-01-26T20:29:52.180Z,56.33
2018-01-26T20:32:20.556Z,89.67
2018-01-26T20:34:48.813Z,93.33
2018-01-26T20:37:16.361Z,61.90
2018-01-26T20:39:43.883Z,62.90
2018-01-26T20:42:11.394Z,48.27
2018-01-26T20:44:38.871Z,66.03
2018-01-26T20:47:07.156Z,73.33
2018-01-26T20:49:34.640Z,41.53
2018-01-26T20:52:02.157Z,51.97
2018-01-26T20:54:29.912Z,74.83
2018-01-26T20:56:57.585Z,61.90
2018-01-26T20:59:25.387Z,65.03
2018-01-26T21:01:52.871Z,57.47
2018-01-26T21:04:20.418Z,83.93
2018-01-26T21:06:47.909Z,105.63
2018-01-26T21:09:15.462Z,110.00
2018-01-26T21:11:43.709Z,96.83
2018-01-26T21:14:11.228Z,76.00
2018-01-26T21:16:38.720Z,98.77
2018-01-26T21:19:06.252Z,49.57
2018-01-26T21:21:33.759Z,74.93
2018-01-26T21:24:01.252Z,61.30
2018-01-26T21:26:29.540Z,60.03
2018-01-26T21:28:57.814Z,64.30
2018-01-26T21:31:26.095Z,52.53
2018-01-26T21:33:53.598Z,53.33
2018-01-26T21:36:21.118Z,59.63
2018-01-26T21:38:48.596Z,58.47
2018-01-26T21:41:17.033Z,64.00
2018-01-26T21:43:45.320Z,42.00
2018-01-26T21:46:12.859Z,48.87
2018-01-26T21:48:40.360Z,68.00
2018-01-26T21:51:07.941Z,71.60
2018-01-26T21:53:35.465Z,63.27
2018-01-26T21:56:03.071Z,54.77
2018-01-26T21:58:30.556Z,54.93
2018-01-26T22:00:58.104Z,49.03
2018-01-26T22:03:25.641Z,57.67
2018-01-26T22:05:53.123Z,44.63
2018-01-26T22:08:20.649Z,48.70
2018-01-26T22:10:48.157Z,50.17
2018-01-26T22:13:16.565Z,59.63
2018-01-26T22:15:44.075Z,53.57
2018-01-26T22:18:11.846Z,42.13
2018-01-26T22:20:39.385Z,46.33
2018-01-26T22:23:06.945Z,48.33
2018-01-26T22:25:34.439Z,44.43
2018-01-26T22:28:02.869Z,46.17
2018-01-26T22:30:30.352Z,40.23
2018-01-26T22:32:57.853Z,36.80
2018-01-26T22:35:25.367Z,41.60
2018-01-26T22:37:52.880Z,38.07
2018-01-26T22:40:20.412Z,36.57
2018-01-26T22:42:48.677Z,51.47
2018-01-26T22:45:17.016Z,54.67
2018-01-26T22:47:44.506Z,46.07
2018-01-26T22:50:12.074Z,41.27
2018-01-26T22:52:40.359Z,47.00
2018-01-26T22:55:08.649Z,37.00
2018-01-26T22:57:36.145Z,47.53
2018-01-26T23:00:03.669Z,50.27
2018-01-26T23:02:31.159Z,44.90
2018-01-26T23:04:58.670Z,37.27
2018-01-26T23:07:26.153Z,33.23
2018-01-26T23:09:53.649Z,37.20
2018-01-26T23:12:21.165Z,39.97
2018-01-26T23:14:48.648Z,45.03
2018-01-26T23:17:16.154Z,40.37
2018-01-26T23:19:44.406Z,29.67
2018-01-26T23:22:11.917Z,36.27
2018-01-26T23:24:39.434Z,32.33
2018-01-26T23:27:06.926Z,47.10
2018-01-26T23:29:34.418Z,45.30
2018-01-26T23:32:01.921Z,64.10
2018-01-26T23:34:30.260Z,49.73
2018-01-26T23:36:58.057Z,55.80
2018-01-26T23:39:25.538Z,55.43
2018-01-26T23:41:53.090Z,41.27
2018-01-26T23:44:20.577Z,58.57
2018-01-26T23:46:48.054Z,53.23
2018-01-26T23:49:15.564Z,43.67
2018-01-26T23:51:43.049Z,39.80
2018-01-26T23:54:10.568Z,49.07
2018-01-26T23:56:38.834Z,39.43
2018-01-26T23:59:06.383Z,37.90
